Time;durP1;ratioP1;P1;durP2;ratioP2;P2;SDS_P1;SDS_P2;PMS_P1;PMS_P2;Temp;Humidity;BMP_temperature;BMP_pressure;BME280_temperature;BME280_humidity;BME280_pressure;Samples;Min_cycle;Max_cycle;Signal;HPM_P1;HPM_P2
2023/04/17 00:07:23;;;;;;;10.27;6.05;;;;;;;11.22;68.42;94089.13;5143966;27;20400;-72
2023/04/17 00:09:48;;;;;;;8.45;5.32;;;;;;;11.20;68.66;94084.09;5131833;27;20035;-72
2023/04/17 00:12:14;;;;;;;7.68;5.32;;;;;;;10.97;69.04;94068.06;5106222;28;20276;-73
2023/04/17 00:14:39;;;;;;;7.88;4.68;;;;;;;11.01;69.31;94082.44;5119775;28;20432;-72
2023/04/17 00:17:05;;;;;;;7.28;4.65;;;;;;;10.86;69.85;94079.50;5111087;27;20492;-73
2023/04/17 00:19:30;;;;;;;9.25;4.97;;;;;;;10.91;69.74;94073.88;5110979;28;20477;-73
2023/04/17 00:21:56;;;;;;;8.63;5.85;;;;;;;10.92;69.31;94080.69;5107005;28;20112;-72
2023/04/17 00:24:21;;;;;;;8.20;4.68;;;;;;;10.78;69.87;94083.78;5109203;28;20074;-73
2023/04/17 00:26:47;;;;;;;6.00;4.68;;;;;;;10.73;70.21;94084.25;5107051;28;20039;-73
2023/04/17 00:29:12;;;;;;;7.68;5.28;;;;;;;10.69;70.28;94090.69;5107989;28;20035;-72
2023/04/17 00:31:38;;;;;;;8.88;5.13;;;;;;;10.54;70.62;94082.56;5105823;28;20396;-73
2023/04/17 00:34:03;;;;;;;10.38;6.22;;;;;;;10.57;70.88;94095.25;5106764;28;20031;-73
2023/04/17 00:36:30;;;;;;;9.82;6.78;;;;;;;10.62;70.84;94087.84;5127171;27;20042;-73
2023/04/17 00:38:56;;;;;;;8.65;6.78;;;;;;;10.56;71.11;94093.63;5125864;28;20083;-72
2023/04/17 00:41:21;;;;;;;9.25;6.10;;;;;;;10.52;70.77;94082.69;5125590;27;20118;-72
2023/04/17 00:43:47;;;;;;;7.72;6.07;;;;;;;10.40;71.13;94080.44;5119264;28;20023;-72
2023/04/17 00:46:12;;;;;;;6.63;5.68;;;;;;;10.55;70.98;94089.38;5091415;28;20036;-73
2023/04/17 00:48:39;;;;;;;8.15;5.88;;;;;;;10.55;71.23;94091.97;5107122;28;20034;-73
2023/04/17 00:51:05;;;;;;;7.55;5.38;;;;;;;10.67;71.21;94096.03;5093450;28;20040;-73
2023/04/17 00:53:31;;;;;;;10.32;5.38;;;;;;;10.62;70.17;94077.47;5089139;28;20507;-72
2023/04/17 00:55:59;;;;;;;6.70;4.82;;;;;;;10.57;71.17;94081.47;5106055;28;20110;-73
2023/04/17 00:58:25;;;;;;;9.23;5.20;;;;;;;10.45;70.85;94060.88;5123553;27;20072;-73
2023/04/17 01:00:51;;;;;;;6.95;5.18;;;;;;;10.51;71.35;94077.66;5140887;27;20525;-73
2023/04/17 01:03:16;;;;;;;8.30;4.88;;;;;;;10.58;70.94;94073.50;5114286;28;20032;-73
2023/04/17 01:05:42;;;;;;;6.90;5.03;;;;;;;10.50;71.15;94063.88;5106978;28;20059;-72
2023/04/17 01:08:08;;;;;;;7.55;4.88;;;;;;;10.52;70.93;94084.47;5098218;28;20122;-72
2023/04/17 01:10:33;;;;;;;5.57;4.53;;;;;;;10.54;70.57;94082.56;5093337;28;20036;-73
2023/04/17 01:13:03;;;;;;;8.57;5.05;;;;;;;10.55;71.03;94086.78;5093501;28;20024;-72
2023/04/17 01:15:28;;;;;;;6.60;4.10;;;;;;;10.61;71.47;94078.41;5092000;28;20097;-72
2023/04/17 01:17:53;;;;;;;7.43;4.35;;;;;;;10.62;70.86;94077.47;5091859;28;20036;-72
2023/04/17 01:20:19;;;;;;;8.20;4.50;;;;;;;10.68;70.33;94079.47;5091468;28;20036;-72
2023/04/17 01:22:48;;;;;;;6.47;4.57;;;;;;;10.60;70.07;94061.19;5094285;28;20031;-73
2023/04/17 01:25:13;;;;;;;7.55;4.00;;;;;;;10.65;69.62;94061.59;5091479;28;20085;-73
2023/04/17 01:27:39;;;;;;;6.10;3.95;;;;;;;10.68;70.29;94069.09;5098143;28;20031;-72
2023/04/17 01:30:05;;;;;;;4.80;3.75;;;;;;;10.70;70.38;94068.97;5092772;28;20036;-72
2023/04/17 01:32:31;;;;;;;8.10;3.85;;;;;;;10.54;70.56;94063.56;5102175;28;20442;-73
2023/04/17 01:34:56;;;;;;;6.75;4.07;;;;;;;10.63;70.14;94078.28;5071421;28;20066;-73
2023/04/17 01:37:22;;;;;;;8.02;4.25;;;;;;;10.64;70.01;94075.56;5094327;28;20031;-73
2023/04/17 01:39:47;;;;;;;7.00;4.20;;;;;;;10.58;70.17;94060.53;5097058;28;20457;-72
2023/04/17 01:42:12;;;;;;;7.95;4.60;;;;;;;10.50;70.67;94071.66;5091841;28;20429;-73
2023/04/17 01:44:38;;;;;;;7.93;5.28;;;;;;;10.50;70.85;94069.06;5093847;28;20413;-73
2023/04/17 01:47:03;;;;;;;9.93;7.40;;;;;;;10.58;70.66;94068.31;5101202;28;20435;-73
2023/04/17 01:49:29;;;;;;;12.68;6.72;;;;;;;10.61;70.13;94064.63;5105808;28;20404;-72
2023/04/17 01:51:54;;;;;;;9.15;5.43;;;;;;;10.41;70.44;94043.13;5093032;28;20036;-73
2023/04/17 01:54:21;;;;;;;10.90;5.13;;;;;;;10.42;70.78;94061.19;5094118;28;20031;-72
2023/04/17 01:56:46;;;;;;;8.20;5.20;;;;;;;10.41;71.29;94048.31;5092702;28;20028;-73
2023/04/17 01:59:12;;;;;;;6.88;4.65;;;;;;;10.55;71.20;94054.81;5091347;28;20028;-73
2023/04/17 02:01:37;;;;;;;10.48;4.72;;;;;;;10.51;71.15;94055.09;5096233;28;20080;-72
2023/04/17 02:04:03;;;;;;;5.85;4.15;;;;;;;10.59;70.50;94056.16;5099010;27;20046;-73
2023/04/17 02:06:28;;;;;;;6.45;4.40;;;;;;;10.65;70.38;94053.78;5094499;28;20130;-73
2023/04/17 02:08:54;;;;;;;7.22;5.28;;;;;;;10.59;70.49;94051.78;5102171;28;20035;-72
2023/04/17 02:11:19;;;;;;;7.07;5.00;;;;;;;10.62;70.03;94041.09;5090944;28;20101;-72
2023/04/17 02:13:45;;;;;;;7.57;5.35;;;;;;;10.69;69.95;94047.34;5078513;28;20032;-73
2023/04/17 02:16:11;;;;;;;8.27;4.80;;;;;;;10.56;70.33;94046.03;5111556;28;20039;-73
2023/04/17 02:18:37;;;;;;;7.43;4.72;;;;;;;10.49;71.12;94033.66;5093819;28;20103;-73
2023/04/17 02:21:03;;;;;;;7.50;5.00;;;;;;;10.63;70.37;94045.31;5093440;28;20042;-73
2023/04/17 02:23:28;;;;;;;9.45;5.05;;;;;;;10.60;70.64;94044.81;5090696;28;20023;-73
2023/04/17 02:25:54;;;;;;;9.38;4.82;;;;;;;10.54;69.63;94054.00;5096811;28;20096;-72
2023/04/17 02:28:19;;;;;;;8.75;4.30;;;;;;;10.56;69.51;94035.66;5076942;28;20032;-72
2023/04/17 02:30:45;;;;;;;9.57;4.93;;;;;;;10.68;68.54;94040.53;5094589;28;20051;-72
2023/04/17 02:33:10;;;;;;;7.68;4.25;;;;;;;10.57;69.87;94034.72;5106906;28;20046;-73
2023/04/17 02:35:36;;;;;;;8.18;4.40;;;;;;;10.61;70.68;94049.84;5098620;28;20551;-72
2023/04/17 02:38:01;;;;;;;8.65;4.60;;;;;;;10.59;70.21;94049.19;5097165;28;20035;-72
2023/04/17 02:40:27;;;;;;;7.40;4.32;;;;;;;10.61;69.23;94055.03;5110171;28;20039;-72
2023/04/17 02:42:52;;;;;;;9.57;4.60;;;;;;;10.56;69.42;94049.50;5075416;28;20075;-72
2023/04/17 02:45:18;;;;;;;10.18;4.25;;;;;;;10.60;68.88;94053.41;5097660;28;20036;-73
2023/04/17 02:47:43;;;;;;;6.25;4.60;;;;;;;10.61;69.67;94047.25;5090651;28;20048;-73
2023/04/17 02:50:09;;;;;;;5.15;4.15;;;;;;;10.70;69.87;94055.97;5097630;28;20089;-72
2023/04/17 02:52:35;;;;;;;8.77;5.07;;;;;;;10.70;68.81;94051.59;5093427;28;20028;-73
2023/04/17 02:55:00;;;;;;;7.70;4.68;;;;;;;10.77;68.76;94051.00;5089205;28;20039;-72
2023/04/17 02:57:26;;;;;;;9.85;5.03;;;;;;;10.72;68.22;94054.84;5092021;28;20035;-73
2023/04/17 02:59:51;;;;;;;8.05;5.07;;;;;;;10.80;67.44;94048.91;5089625;28;20047;-73
2023/04/17 03:02:23;;;;;;;9.10;5.18;;;;;;;10.74;66.18;94041.72;5096128;28;20073;-72
2023/04/17 03:04:49;;;;;;;10.35;4.90;;;;;;;10.81;65.79;94037.56;5085851;28;20409;-72
2023/04/17 03:07:18;;;;;;;10.43;5.43;;;;;;;10.82;66.47;94034.00;5090005;28;20040;-73
2023/04/17 03:09:46;;;;;;;7.72;4.97;;;;;;;10.86;66.29;94047.50;5102005;28;20031;-73
2023/04/17 03:12:14;;;;;;;9.00;5.22;;;;;;;10.83;67.12;94045.22;5089176;28;20424;-73
2023/04/17 03:14:40;;;;;;;10.43;5.00;;;;;;;10.79;67.26;94051.66;5084283;28;20012;-73
2023/04/17 03:17:06;;;;;;;7.50;5.13;;;;;;;10.72;68.03;94051.41;5090548;28;20039;-73
2023/04/17 03:19:31;;;;;;;9.70;5.88;;;;;;;10.69;68.69;94051.72;5087500;28;20145;-73
2023/04/17 03:21:57;;;;;;;11.40;5.68;;;;;;;10.67;69.19;94054.47;5079878;28;20544;-73
2023/04/17 03:24:22;;;;;;;9.70;5.30;;;;;;;10.42;69.04;94016.19;5090365;28;20139;-73
2023/04/17 03:26:48;;;;;;;10.98;5.78;;;;;;;10.63;68.17;94055.72;5091578;28;20032;-73
2023/04/17 03:29:13;;;;;;;8.88;4.85;;;;;;;10.70;67.43;94064.56;5088393;28;20386;-74
2023/04/17 03:31:39;;;;;;;9.02;5.18;;;;;;;10.68;66.89;94061.28;5088461;28;20031;-73
2023/04/17 03:34:04;;;;;;;10.82;5.20;;;;;;;10.71;66.43;94050.59;5076028;28;20065;-73
2023/04/17 03:36:30;;;;;;;9.80;5.20;;;;;;;10.72;67.40;94060.03;5082767;28;20050;-73
2023/04/17 03:38:56;;;;;;;8.80;4.78;;;;;;;10.67;66.68;94058.81;5074846;28;20031;-73
2023/04/17 03:41:22;;;;;;;9.13;4.72;;;;;;;10.61;66.93;94056.81;5110830;28;20492;-73
2023/04/17 03:43:47;;;;;;;9.55;4.95;;;;;;;10.45;66.99;94036.69;5094719;28;20036;-73
2023/04/17 03:46:13;;;;;;;8.57;4.63;;;;;;;10.52;66.13;94048.13;5088900;28;20024;-73
2023/04/17 03:48:38;;;;;;;6.95;4.70;;;;;;;10.47;66.70;94058.13;5089591;28;20028;-73
2023/04/17 03:51:04;;;;;;;10.85;5.97;;;;;;;10.51;66.93;94060.28;5091072;28;20243;-73
2023/04/17 03:53:29;;;;;;;12.55;5.63;;;;;;;10.49;66.30;94051.00;5090049;28;20024;-73
2023/04/17 03:55:55;;;;;;;6.85;4.80;;;;;;;10.46;66.87;94048.72;5089498;28;20044;-73
2023/04/17 03:58:21;;;;;;;8.10;4.45;;;;;;;10.53;67.10;94065.38;5090939;28;20043;-73
2023/04/17 04:00:47;;;;;;;9.02;4.90;;;;;;;10.51;67.09;94049.91;5086614;28;20043;-73
2023/04/17 04:03:13;;;;;;;9.15;4.63;;;;;;;10.57;65.87;94051.09;5087609;28;20024;-73
2023/04/17 04:05:38;;;;;;;10.10;4.47;;;;;;;10.63;65.77;94062.69;5069393;28;20059;-73
2023/04/17 04:08:04;;;;;;;12.40;8.32;;;;;;;10.52;65.90;94056.72;5088694;28;20039;-73
2023/04/17 04:10:31;;;;;;;8.90;5.60;;;;;;;10.59;67.01;94051.78;5091100;28;20032;-74
2023/04/17 04:12:56;;;;;;;9.25;5.18;;;;;;;10.66;66.71;94050.22;5119726;28;20051;-73
2023/04/17 04:15:22;;;;;;;8.70;5.03;;;;;;;10.40;66.87;94044.91;5087963;28;20490;-74
2023/04/17 04:17:48;;;;;;;7.18;4.40;;;;;;;10.50;66.72;94047.44;5054633;28;20559;-74
2023/04/17 04:20:13;;;;;;;7.53;4.47;;;;;;;10.38;66.20;94049.44;5126937;27;20119;-74
2023/04/17 04:22:40;;;;;;;8.68;4.88;;;;;;;10.48;65.91;94052.81;5089311;28;20027;-73
2023/04/17 04:25:06;;;;;;;10.40;4.97;;;;;;;10.60;65.43;94061.19;5140760;22;20071;-76
2023/04/17 04:27:31;;;;;;;13.95;5.68;;;;;;;10.54;65.58;94059.19;5105332;28;20328;-71
2023/04/17 04:30:00;;;;;;;11.23;5.53;;;;;;;10.47;65.99;94058.97;5098805;28;20550;-77
2023/04/17 04:32:26;;;;;;;8.07;5.20;;;;;;;10.53;66.33;94062.75;5088600;28;20792;-76
2023/04/17 04:34:57;;;;;;;7.22;5.18;;;;;;;10.39;66.86;94055.44;5065763;28;20035;-76
2023/04/17 04:37:28;;;;;;;10.55;5.43;;;;;;;10.43;66.91;94057.59;5069920;28;20036;-76
2023/04/17 04:40:09;;;;;;;7.15;5.28;;;;;;;10.47;66.67;94073.69;5070674;28;20036;-76
2023/04/17 04:42:35;;;;;;;8.82;5.18;;;;;;;10.42;66.97;94071.56;5075651;28;20119;-79
2023/04/17 04:45:01;;;;;;;8.75;5.35;;;;;;;10.31;66.26;94066.56;5061892;28;20497;-79
2023/04/17 04:47:26;;;;;;;12.00;5.50;;;;;;;10.39;66.26;94071.00;5041161;28;20043;-77
2023/04/17 04:49:52;;;;;;;8.40;5.43;;;;;;;10.35;66.31;94067.88;5060998;28;20028;-78
2023/04/17 04:52:17;;;;;;;8.55;5.75;;;;;;;10.05;66.86;94027.41;5050383;28;20035;-78
2023/04/17 04:54:43;;;;;;;9.13;5.88;;;;;;;10.19;66.41;94050.28;5054649;28;20028;-75
2023/04/17 04:57:08;;;;;;;9.30;5.65;;;;;;;10.40;66.66;94077.84;5052619;28;20033;-81
2023/04/17 04:59:34;;;;;;;9.15;5.47;;;;;;;10.32;66.75;94059.56;5061310;28;21324;-81
2023/04/17 05:01:59;;;;;;;9.60;5.50;;;;;;;10.40;66.23;94078.66;5073908;28;20047;-80
2023/04/17 05:04:25;;;;;;;11.93;6.10;;;;;;;10.42;66.12;94060.34;5073753;28;20484;-80
2023/04/17 05:06:51;;;;;;;9.23;5.50;;;;;;;10.61;65.46;94077.59;5061276;28;20090;-80
2023/04/17 05:09:16;;;;;;;10.80;5.57;;;;;;;10.56;65.54;94067.66;5088769;28;20031;-79
2023/04/17 05:11:42;;;;;;;9.98;5.10;;;;;;;10.74;65.42;94073.69;5055593;28;20024;-80
2023/04/17 05:14:07;;;;;;;9.90;5.93;;;;;;;10.80;65.21;94071.47;5062742;28;20043;-80
2023/04/17 05:16:33;;;;;;;7.88;5.93;;;;;;;10.90;65.30;94070.47;5102201;28;20035;-80
2023/04/17 05:18:59;;;;;;;7.50;6.07;;;;;;;11.03;65.24;94077.06;5097699;28;20063;-80
2023/04/17 05:21:26;;;;;;;10.68;6.65;;;;;;;11.09;65.03;94079.09;5092252;28;20043;-81
2023/04/17 05:23:51;;;;;;;12.60;9.50;;;;;;;11.14;65.68;94077.69;5074354;28;20067;-80
2023/04/17 05:26:17;;;;;;;16.13;11.07;;;;;;;11.09;66.61;94079.91;5071986;28;20072;-80
2023/04/17 05:28:43;;;;;;;16.00;13.60;;;;;;;11.16;66.87;94083.53;5059870;28;20024;-80
2023/04/17 05:31:09;;;;;;;24.70;20.88;;;;;;;11.04;67.49;94069.13;5053953;28;20412;-80
2023/04/17 05:33:35;;;;;;;22.95;16.15;;;;;;;11.14;67.47;94084.66;5076318;28;20210;-80
2023/04/17 05:36:00;;;;;;;17.75;13.95;;;;;;;11.23;67.36;94081.19;5090436;28;20063;-81
2023/04/17 05:38:25;;;;;;;8.85;6.30;;;;;;;11.05;67.61;94069.94;5073935;28;20450;-81
2023/04/17 05:40:52;;;;;;;10.50;6.70;;;;;;;11.11;67.68;94072.75;5066870;28;20044;-81
2023/04/17 05:43:17;;;;;;;9.35;6.57;;;;;;;11.02;66.92;94060.66;5077305;28;20113;-80
2023/04/17 05:45:43;;;;;;;8.25;6.07;;;;;;;11.16;66.55;94086.13;5078500;28;20485;-81
2023/04/17 05:48:09;;;;;;;8.90;5.55;;;;;;;11.01;66.16;94079.84;5057337;28;20024;-80
2023/04/17 05:50:36;;;;;;;11.13;6.57;;;;;;;10.99;66.47;94089.53;5055251;28;20036;-81
2023/04/17 05:53:01;;;;;;;8.57;5.70;;;;;;;10.88;66.84;94090.56;5027914;28;20040;-81
2023/04/17 05:55:27;;;;;;;9.95;6.43;;;;;;;10.77;66.73;94089.97;5072945;28;20121;-81
2023/04/17 05:57:52;;;;;;;10.93;6.38;;;;;;;10.81;66.60;94093.88;5091919;28;20024;-80
2023/04/17 06:00:21;;;;;;;10.23;5.78;;;;;;;10.90;65.86;94098.22;5056854;28;20024;-80
2023/04/17 06:02:47;;;;;;;9.93;5.97;;;;;;;10.82;66.09;94092.94;5077918;28;20051;-80
2023/04/17 06:05:13;;;;;;;9.52;5.78;;;;;;;10.91;65.92;94107.66;5061704;28;20433;-81
2023/04/17 06:07:39;;;;;;;9.13;5.88;;;;;;;10.80;66.53;94106.06;5074957;28;20157;-81
2023/04/17 06:10:05;;;;;;;8.75;5.97;;;;;;;10.80;66.45;94105.25;5053099;28;20035;-80
2023/04/17 06:12:31;;;;;;;8.68;6.35;;;;;;;10.88;66.70;94102.75;5058363;28;20108;-81
2023/04/17 06:14:56;;;;;;;9.93;5.82;;;;;;;10.81;67.18;94106.88;5071380;28;20489;-81
2023/04/17 06:17:22;;;;;;;11.13;5.95;;;;;;;10.83;66.96;94108.38;5072105;28;20420;-80
2023/04/17 06:19:47;;;;;;;12.27;5.70;;;;;;;10.80;67.27;94110.44;5080517;28;20028;-80
2023/04/17 06:22:13;;;;;;;8.10;6.63;;;;;;;10.83;67.57;94110.16;5094879;28;20470;-80
2023/04/17 06:24:38;;;;;;;8.45;5.50;;;;;;;10.59;67.28;94100.31;5072340;28;20409;-81
2023/04/17 06:27:04;;;;;;;7.18;5.53;;;;;;;10.69;67.53;94109.69;5039031;28;20813;-80
2023/04/17 06:29:29;;;;;;;10.32;5.70;;;;;;;10.84;66.90;94117.00;5080276;28;20402;-81
2023/04/17 06:31:55;;;;;;;8.32;7.15;;;;;;;10.99;66.19;94112.94;5075065;28;20669;-80
2023/04/17 06:34:20;;;;;;;9.98;6.32;;;;;;;11.11;66.05;94119.53;5070807;28;20111;-81
2023/04/17 06:36:46;;;;;;;9.20;6.22;;;;;;;11.15;64.70;94126.09;5036966;28;20056;-81
2023/04/17 06:39:12;;;;;;;10.32;6.65;;;;;;;11.13;65.21;94122.81;5049681;28;20447;-81
2023/04/17 06:41:37;;;;;;;9.65;6.07;;;;;;;11.18;66.03;94104.19;5074418;28;20481;-81
2023/04/17 06:44:03;;;;;;;11.73;6.80;;;;;;;11.25;66.40;94122.63;5070210;28;20040;-81
2023/04/17 06:46:28;;;;;;;13.02;6.45;;;;;;;11.27;66.44;94128.50;5073339;28;20023;-80
2023/04/17 06:48:58;;;;;;;14.43;6.28;;;;;;;11.23;66.56;94111.53;5080383;28;20079;-81
2023/04/17 06:51:26;;;;;;;12.20;6.68;;;;;;;11.39;66.29;94125.53;5059937;28;20073;-81
2023/04/17 06:53:51;;;;;;;8.90;6.10;;;;;;;11.35;66.72;94120.78;5072962;28;20028;-81
2023/04/17 06:56:18;;;;;;;12.40;6.55;;;;;;;11.37;66.43;94104.06;5074710;28;20034;-81
2023/04/17 06:58:44;;;;;;;10.73;5.55;;;;;;;11.50;66.50;94119.25;5082338;28;20081;-80
2023/04/17 07:01:10;;;;;;;8.55;6.35;;;;;;;11.23;66.70;94067.34;5055309;28;20020;-81
2023/04/17 07:03:37;;;;;;;9.50;5.65;;;;;;;11.56;66.69;94108.28;5073572;28;20024;-81
2023/04/17 07:06:02;;;;;;;12.65;7.60;;;;;;;11.68;66.49;94113.25;5054769;28;20047;-80
2023/04/17 07:08:28;;;;;;;57.65;23.75;;;;;;;11.57;66.44;94083.91;5055631;28;20556;-80
2023/04/17 07:10:54;;;;;;;18.10;8.40;;;;;;;11.77;66.30;94120.16;5069317;28;20031;-81
2023/04/17 07:13:19;;;;;;;14.00;6.95;;;;;;;11.84;66.16;94110.78;5071917;28;20478;-80
2023/04/17 07:15:53;;;;;;;9.15;5.28;;;;;;;11.90;65.46;94123.22;5071447;28;20043;-80
2023/04/17 07:18:18;;;;;;;10.57;5.20;;;;;;;11.82;66.07;94129.13;5073490;28;20501;-81
2023/04/17 07:20:44;;;;;;;9.60;5.90;;;;;;;11.73;66.26;94124.00;5063940;28;20391;-80
2023/04/17 07:23:09;;;;;;;9.95;5.53;;;;;;;11.77;66.24;94125.34;5056423;28;20036;-80
2023/04/17 07:25:35;;;;;;;9.15;5.72;;;;;;;11.79;66.43;94128.63;5066975;28;20036;-80
2023/04/17 07:28:00;;;;;;;10.48;6.32;;;;;;;11.71;66.58;94128.56;5053740;28;20391;-81
2023/04/17 07:30:27;;;;;;;10.18;5.97;;;;;;;11.39;67.41;94116.88;5036033;28;20063;-81
2023/04/17 07:32:53;;;;;;;11.90;6.28;;;;;;;11.59;67.36;94127.97;5070573;28;20482;-81
2023/04/17 07:35:18;;;;;;;10.48;6.25;;;;;;;11.63;67.14;94129.31;5058087;28;20028;-78
2023/04/17 07:37:44;;;;;;;13.25;6.78;;;;;;;11.74;66.64;94130.84;5046522;28;20036;-77
2023/04/17 07:40:10;;;;;;;10.25;5.93;;;;;;;11.69;65.74;94127.88;5060913;28;20031;-76
2023/04/17 07:42:36;;;;;;;10.25;6.45;;;;;;;11.74;66.25;94136.06;5047957;28;20077;-76
2023/04/17 07:45:01;;;;;;;10.55;5.97;;;;;;;11.55;65.97;94137.84;5050735;28;20033;-78
2023/04/17 07:47:27;;;;;;;10.88;5.93;;;;;;;11.50;66.65;94134.88;5069107;28;20032;-77
2023/04/17 07:49:52;;;;;;;13.55;6.65;;;;;;;11.43;66.56;94094.03;5066317;28;20108;-78
2023/04/17 07:52:18;;;;;;;11.88;6.65;;;;;;;11.82;66.37;94136.13;5068593;28;20025;-77
2023/04/17 07:54:43;;;;;;;8.60;6.10;;;;;;;11.99;65.09;94134.50;5066516;28;20448;-77
2023/04/17 07:57:10;;;;;;;11.50;6.13;;;;;;;11.97;64.56;94126.00;5051399;28;20126;-78
2023/04/17 07:59:35;;;;;;;11.25;5.72;;;;;;;12.05;64.36;94134.69;5065163;28;20033;-77
2023/04/17 08:02:02;;;;;;;10.43;6.05;;;;;;;12.10;64.08;94142.06;5024799;28;20029;-77
2023/04/17 08:04:27;;;;;;;12.68;6.63;;;;;;;11.95;64.63;94136.59;5060946;28;20024;-76
2023/04/17 08:06:53;;;;;;;11.13;5.93;;;;;;;12.05;64.99;94132.09;5059890;28;20029;-81
2023/04/17 08:09:20;;;;;;;12.10;6.80;;;;;;;12.15;64.71;94133.78;5051284;28;20103;-81
2023/04/17 08:11:45;;;;;;;12.68;6.80;;;;;;;12.24;64.52;94138.88;5032490;28;20044;-77
2023/04/17 08:14:11;;;;;;;12.15;6.30;;;;;;;12.21;64.50;94128.78;5062148;28;20044;-80
2023/04/17 08:16:36;;;;;;;10.98;6.75;;;;;;;12.18;64.93;94128.28;5047069;28;20028;-78
2023/04/17 08:19:02;;;;;;;9.85;6.45;;;;;;;12.34;65.93;94137.97;5084983;28;20052;-78
2023/04/17 08:21:27;;;;;;;10.20;6.82;;;;;;;12.38;66.25;94134.09;5073037;28;20032;-78
2023/04/17 08:23:53;;;;;;;10.43;6.63;;;;;;;12.28;65.91;94134.19;5069776;28;20448;-78
2023/04/17 08:26:19;;;;;;;11.25;6.25;;;;;;;12.32;66.02;94138.13;5025257;28;20052;-73
2023/04/17 08:28:45;;;;;;;9.88;6.80;;;;;;;12.22;66.17;94127.00;5059021;28;20024;-76
2023/04/17 08:31:10;;;;;;;11.70;6.85;;;;;;;12.35;66.38;94135.22;5047115;28;20059;-76
2023/04/17 08:33:36;;;;;;;14.95;7.35;;;;;;;12.35;67.43;94140.41;5037345;28;20061;-77
2023/04/17 08:36:01;;;;;;;11.52;7.75;;;;;;;12.40;67.21;94132.97;5044831;28;20039;-75
2023/04/17 08:38:28;;;;;;;12.00;6.95;;;;;;;12.48;66.55;94140.81;5068820;28;20479;-77
2023/04/17 08:40:54;;;;;;;14.48;8.20;;;;;;;12.51;66.58;94129.28;5056619;28;20477;-77
2023/04/17 08:43:20;;;;;;;11.27;6.63;;;;;;;12.65;65.92;94136.50;5039602;28;20037;-78
2023/04/17 08:45:52;;;;;;;13.85;6.38;;;;;;;12.66;64.79;94126.91;5059052;28;20487;-77
2023/04/17 08:48:18;;;;;;;10.07;5.95;;;;;;;12.91;64.05;94140.84;5052995;28;20536;-78
2023/04/17 08:50:47;;;;;;;10.95;6.53;;;;;;;12.91;64.38;94133.03;5053628;28;20032;-77
2023/04/17 08:53:12;;;;;;;8.45;6.40;;;;;;;12.93;64.11;94125.88;5052231;28;20029;-77
2023/04/17 08:55:38;;;;;;;11.70;6.90;;;;;;;13.01;64.51;94118.09;5036433;28;20045;-77
2023/04/17 08:58:03;;;;;;;8.57;6.57;;;;;;;13.19;63.83;94131.00;5036344;28;20030;-77
2023/04/17 09:00:29;;;;;;;8.30;5.82;;;;;;;13.12;62.59;94133.44;5053043;28;20033;-77
2023/04/17 09:02:55;;;;;;;12.30;5.80;;;;;;;13.22;61.16;94133.28;5052957;28;20032;-77
2023/04/17 09:05:22;;;;;;;6.93;5.13;;;;;;;13.25;60.34;94122.53;5053167;28;20041;-77
2023/04/17 09:07:48;;;;;;;8.30;5.00;;;;;;;13.35;57.45;94138.06;5052950;28;20554;-77
2023/04/17 09:10:15;;;;;;;7.07;5.03;;;;;;;13.43;58.08;94132.03;5053078;28;20082;-77
2023/04/17 09:12:40;;;;;;;16.67;8.02;;;;;;;13.40;59.39;94123.56;5053930;28;20111;-77
2023/04/17 09:15:15;;;;;;;17.63;10.00;;;;;;;13.40;58.94;94126.19;5036226;28;20044;-77
2023/04/17 09:17:41;;;;;;;10.13;6.65;;;;;;;13.40;59.31;94131.41;5035329;28;20024;-78
2023/04/17 09:20:08;;;;;;;9.90;5.20;;;;;;;13.50;57.99;94126.00;5054208;28;20037;-78
2023/04/17 09:22:34;;;;;;;6.82;4.68;;;;;;;13.50;57.21;94135.66;5036100;28;20048;-77
2023/04/17 09:25:00;;;;;;;18.67;9.70;;;;;;;13.56;58.65;94141.03;5052645;28;20225;-76
2023/04/17 09:27:26;;;;;;;24.90;12.70;;;;;;;13.34;60.53;94131.19;5058678;28;20131;-76
2023/04/17 09:30:02;;;;;;;14.00;8.65;;;;;;;13.44;63.36;94142.31;5075920;28;20110;-76
2023/04/17 09:32:29;;;;;;;13.75;6.70;;;;;;;13.31;64.13;94137.56;5059258;28;20032;-76
2023/04/17 09:34:56;;;;;;;10.60;6.28;;;;;;;13.34;65.60;94139.84;5059250;28;20045;-77
2023/04/17 09:37:22;;;;;;;26.13;15.68;;;;;;;13.29;64.18;94138.69;5059249;28;20032;-76
2023/04/17 09:40:01;;;;;;;24.58;14.13;;;;;;;13.32;63.73;94134.00;5059285;28;20577;-76
2023/04/17 09:42:26;;;;;;;11.95;7.68;;;;;;;13.28;63.28;94137.06;5058921;28;20565;-76
2023/04/17 09:44:53;;;;;;;12.48;7.57;;;;;;;13.24;63.22;94109.66;5075811;28;20040;-76
2023/04/17 09:47:19;;;;;;;12.07;6.78;;;;;;;13.45;62.82;94136.13;5093508;28;20552;-77
2023/04/17 09:49:49;;;;;;;8.18;5.47;;;;;;;13.46;61.70;94136.97;5059222;28;20030;-77
2023/04/17 09:52:22;;;;;;;7.47;5.50;;;;;;;13.36;61.36;94139.69;5059875;28;20106;-77
2023/04/17 09:54:50;;;;;;;11.38;6.88;;;;;;;13.41;61.73;94137.44;5059608;28;20086;-77
2023/04/17 09:57:15;;;;;;;7.60;6.22;;;;;;;13.44;60.95;94124.06;5042568;28;20081;-77
2023/04/17 09:59:44;;;;;;;6.90;5.88;;;;;;;13.49;61.47;94132.22;5058709;28;20136;-77
2023/04/17 10:02:11;;;;;;;11.38;6.38;;;;;;;13.64;60.03;94132.41;5042819;28;20105;-77
2023/04/17 10:04:39;;;;;;;7.72;5.47;;;;;;;13.65;59.06;94118.38;5058818;28;20032;-77
2023/04/17 10:07:05;;;;;;;11.13;6.72;;;;;;;13.63;59.57;94118.53;5058871;28;20020;-77
2023/04/17 10:09:30;;;;;;;9.73;6.15;;;;;;;13.73;58.47;94115.75;5041972;28;20036;-77
2023/04/17 10:11:56;;;;;;;7.40;5.85;;;;;;;13.81;57.43;94113.13;5058140;28;20024;-77
2023/04/17 10:14:26;;;;;;;9.05;6.55;;;;;;;13.85;57.34;94118.88;5058695;28;20041;-77
2023/04/17 10:16:52;;;;;;;8.80;5.93;;;;;;;13.85;56.64;94111.84;5075123;28;20028;-77
2023/04/17 10:19:30;;;;;;;8.43;6.30;;;;;;;13.84;58.58;94107.59;5075101;28;20035;-77
2023/04/17 10:22:14;;;;;;;9.68;6.93;;;;;;;13.83;58.17;94108.56;5075460;28;20042;-77
2023/04/17 10:24:41;;;;;;;7.55;6.30;;;;;;;13.80;57.18;94101.06;5088063;28;20280;-80
2023/04/17 10:27:25;;;;;;;9.30;6.60;;;;;;;14.02;56.04;94111.84;5092493;28;20052;-79
2023/04/17 10:30:01;;;;;;;8.48;6.15;;;;;;;14.04;55.92;94102.03;5092259;28;20039;-79
2023/04/17 10:32:27;;;;;;;7.40;6.00;;;;;;;14.13;54.01;94101.06;5039946;28;20525;-80
2023/04/17 10:34:56;;;;;;;9.07;6.35;;;;;;;14.23;55.04;94100.84;5057529;28;20047;-80
2023/04/17 10:37:45;;;;;;;7.75;6.60;;;;;;;14.28;56.22;94088.13;5072451;28;20212;-78
2023/04/17 10:40:11;;;;;;;12.88;9.23;;;;;;;14.38;54.48;94093.97;5059246;28;20036;-78
2023/04/17 10:42:37;;;;;;;8.32;7.13;;;;;;;14.58;53.65;94091.81;5089553;28;20157;-75
2023/04/17 10:45:04;;;;;;;9.45;7.13;;;;;;;14.62;52.33;94087.06;5053326;28;20032;-78
2023/04/17 10:47:33;;;;;;;8.05;5.40;;;;;;;14.41;50.39;94091.03;5072629;28;20039;-81
2023/04/17 10:50:02;;;;;;;10.13;5.93;;;;;;;14.56;50.87;94085.94;5040182;28;20028;-81
2023/04/17 10:52:34;;;;;;;6.35;5.13;;;;;;;14.59;50.50;94087.41;5073536;28;20051;-86
2023/04/17 10:55:16;;;;;;;10.70;5.68;;;;;;;14.65;49.42;94089.34;5055318;28;20059;-78
2023/04/17 10:57:50;;;;;;;10.45;7.47;;;;;;;14.58;50.91;94081.38;5073180;28;20035;-79
2023/04/17 11:00:17;;;;;;;7.85;6.00;;;;;;;14.21;50.79;94098.44;5090811;28;20031;-78
2023/04/17 11:02:48;;;;;;;7.03;6.07;;;;;;;14.08;51.55;94078.03;5089264;28;20039;-77
2023/04/17 11:05:15;;;;;;;8.23;6.03;;;;;;;13.95;51.96;94082.13;5073050;28;20036;-77
2023/04/17 11:07:42;;;;;;;9.80;6.22;;;;;;;13.84;51.44;94070.22;5036843;28;20097;-75
2023/04/17 11:10:08;;;;;;;9.18;6.30;;;;;;;14.15;51.41;94086.03;5055482;28;20024;-77
2023/04/17 11:12:34;;;;;;;8.90;6.88;;;;;;;14.25;51.64;94080.63;5055669;28;20024;-78
2023/04/17 11:15:03;;;;;;;9.77;6.93;;;;;;;14.36;50.93;94080.25;5055859;28;20089;-76
2023/04/17 11:17:28;;;;;;;10.30;6.63;;;;;;;14.30;48.41;94086.97;5061540;28;20162;-77
2023/04/17 11:19:55;;;;;;;9.27;7.30;;;;;;;14.43;49.05;94077.78;5060547;28;20119;-78
2023/04/17 11:22:20;;;;;;;8.50;6.18;;;;;;;14.27;48.15;94076.06;5060694;28;20020;-76
2023/04/17 11:24:46;;;;;;;11.02;6.88;;;;;;;14.37;48.73;94081.88;5056340;28;20408;-76
2023/04/17 11:27:11;;;;;;;9.00;6.57;;;;;;;14.30;49.00;94086.16;5074321;28;20425;-76
2023/04/17 11:29:36;;;;;;;9.07;7.07;;;;;;;14.32;49.77;94081.59;5084756;28;20035;-76
2023/04/17 11:32:02;;;;;;;9.90;7.63;;;;;;;14.57;49.79;94082.38;5085011;28;20448;-76